createdAt,value
2016-12-26T00:00:06.911Z,0
2016-12-26T00:00:55.321Z,0
2016-12-26T00:01:44.123Z,0
2016-12-26T00:02:32.465Z,0
2016-12-26T00:03:21.164Z,0
2016-12-26T00:04:09.663Z,0
2016-12-26T00:04:58.567Z,0
2016-12-26T00:05:47.535Z,0
2016-12-26T00:08:08.753Z,0
2016-12-26T00:08:56.342Z,0
2016-12-26T00:09:44.915Z,0
2016-12-26T00:10:33.356Z,0
2016-12-26T00:11:22.573Z,0
2016-12-26T00:12:10.919Z,0
2016-12-26T00:12:59.103Z,0
2016-12-26T00:13:48.015Z,0
2016-12-26T00:14:37.215Z,0
2016-12-26T00:15:25.877Z,0
2016-12-26T00:16:14.050Z,0
2016-12-26T00:17:02.756Z,0
2016-12-26T00:17:51.529Z,0
2016-12-26T00:18:40.089Z,0
2016-12-26T00:19:29.052Z,0
2016-12-26T00:20:17.457Z,0
2016-12-26T00:21:06.379Z,0
2016-12-26T00:21:55.011Z,0
2016-12-26T00:22:43.408Z,0
2016-12-26T00:23:31.924Z,0
2016-12-26T00:24:20.548Z,0
2016-12-26T00:25:09.412Z,0
2016-12-26T00:25:57.872Z,0
2016-12-26T00:26:46.534Z,0
2016-12-26T00:27:35.361Z,0
2016-12-26T00:28:23.644Z,0
2016-12-26T00:29:12.314Z,0
2016-12-26T00:30:00.856Z,0
2016-12-26T00:30:49.823Z,0
2016-12-26T00:31:38.124Z,0
2016-12-26T00:32:27.286Z,0
2016-12-26T00:33:15.577Z,0
2016-12-26T00:34:04.400Z,0
2016-12-26T00:34:52.826Z,0
2016-12-26T00:35:41.590Z,0
2016-12-26T00:36:30.554Z,0
2016-12-26T00:37:18.870Z,0
2016-12-26T00:38:07.922Z,0
2016-12-26T00:38:56.125Z,0
2016-12-26T00:39:44.906Z,0
2016-12-26T00:40:33.456Z,0
2016-12-26T00:41:22.006Z,0
2016-12-26T00:42:04.260Z,0
2016-12-26T00:42:46.571Z,0
2016-12-26T00:43:29.643Z,0
2016-12-26T00:44:10.140Z,0
2016-12-26T00:44:51.124Z,0
2016-12-26T00:45:31.617Z,0
2016-12-26T00:46:12.103Z,0
2016-12-26T00:46:54.270Z,0
2016-12-26T00:49:15.047Z,0
2016-12-26T00:50:04.074Z,0
2016-12-26T00:50:52.263Z,0
2016-12-26T00:51:40.971Z,0
2016-12-26T00:52:29.586Z,0
2016-12-26T00:53:18.232Z,0
2016-12-26T00:54:06.765Z,0
2016-12-26T00:54:54.482Z,0
2016-12-26T00:55:43.514Z,0
2016-12-26T00:56:31.660Z,0
2016-12-26T00:57:20.532Z,0
2016-12-26T00:58:09.058Z,0
2016-12-26T00:58:57.833Z,0
2016-12-26T00:59:47.006Z,0
2016-12-26T01:00:35.047Z,0
2016-12-26T01:01:24.151Z,0
2016-12-26T01:02:12.545Z,0
2016-12-26T01:03:01.271Z,0
2016-12-26T01:03:49.659Z,0
2016-12-26T01:04:38.589Z,0
2016-12-26T01:05:27.255Z,0
2016-12-26T01:06:15.421Z,0
2016-12-26T01:07:04.665Z,0
2016-12-26T01:07:52.992Z,0
2016-12-26T01:08:41.959Z,0
2016-12-26T01:09:30.196Z,0
2016-12-26T01:10:18.910Z,0
2016-12-26T01:11:07.168Z,0
2016-12-26T01:11:56.493Z,0
2016-12-26T01:12:45.023Z,0
2016-12-26T01:13:33.601Z,0
2016-12-26T01:14:21.832Z,0
2016-12-26T01:15:10.544Z,0
2016-12-26T01:15:59.617Z,0
2016-12-26T01:16:47.695Z,0
2016-12-26T01:17:36.488Z,0
2016-12-26T01:18:25.312Z,0
2016-12-26T01:19:13.565Z,0
2016-12-26T01:20:02.284Z,0
2016-12-26T01:20:50.979Z,0
2016-12-26T01:21:40.059Z,0
2016-12-26T01:22:28.597Z,0
2016-12-26T01:23:10.495Z,0
2016-12-26T01:23:52.532Z,0
2016-12-26T01:24:33.809Z,0
2016-12-26T01:25:15.018Z,0
2016-12-26T01:25:56.429Z,0
2016-12-26T01:26:39.721Z,0
2016-12-26T01:27:20.186Z,0
2016-12-26T01:28:00.650Z,0
2016-12-26T01:28:42.122Z,0
2016-12-26T01:29:23.524Z,0
2016-12-26T01:30:04.682Z,0
2016-12-26T01:30:45.179Z,0
2016-12-26T01:31:26.311Z,0
2016-12-26T01:32:08.428Z,0
2016-12-26T01:32:50.755Z,0
2016-12-26T01:33:31.217Z,0
2016-12-26T01:34:11.701Z,0
2016-12-26T01:34:52.160Z,0
2016-12-26T01:35:33.504Z,0
2016-12-26T01:36:13.981Z,0
2016-12-26T01:36:54.437Z,0
2016-12-26T01:37:34.930Z,0
2016-12-26T01:38:15.380Z,0
2016-12-26T01:38:57.443Z,0
2016-12-26T01:39:38.415Z,0
2016-12-26T01:40:18.921Z,0
2016-12-26T01:40:59.399Z,0
2016-12-26T01:41:41.501Z,0
2016-12-26T01:42:22.800Z,0
2016-12-26T01:43:04.915Z,0
2016-12-26T01:43:45.383Z,0
2016-12-26T01:44:25.904Z,0
2016-12-26T01:45:07.235Z,0
2016-12-26T01:45:48.493Z,0
2016-12-26T01:46:28.965Z,0
2016-12-26T01:47:09.450Z,0
2016-12-26T01:47:50.717Z,0
2016-12-26T01:48:31.271Z,0
2016-12-26T01:49:11.713Z,0
2016-12-26T01:49:52.930Z,0
2016-12-26T01:50:34.305Z,0
2016-12-26T01:51:14.788Z,0
2016-12-26T01:51:55.232Z,0
2016-12-26T01:52:36.291Z,0
2016-12-26T01:53:16.774Z,0
2016-12-26T01:53:57.823Z,0
2016-12-26T01:54:38.352Z,0
2016-12-26T01:55:20.497Z,0
2016-12-26T01:56:00.955Z,0
2016-12-26T01:56:42.559Z,0
2016-12-26T01:57:25.492Z,0
2016-12-26T01:58:06.030Z,0
2016-12-26T01:58:48.028Z,0
2016-12-26T02:01:09.953Z,0
2016-12-26T02:01:58.771Z,0
2016-12-26T02:02:47.765Z,0
2016-12-26T02:03:36.524Z,0
2016-12-26T02:04:24.693Z,0
2016-12-26T02:05:13.519Z,0
2016-12-26T02:06:02.839Z,0
2016-12-26T02:06:51.186Z,0
2016-12-26T02:07:39.604Z,0
2016-12-26T02:08:27.064Z,0
2016-12-26T02:09:14.374Z,0
2016-12-26T02:10:03.373Z,0
2016-12-26T02:10:51.458Z,0
2016-12-26T02:11:40.412Z,0
2016-12-26T02:12:29.305Z,0
2016-12-26T02:13:17.418Z,0
2016-12-26T02:14:06.411Z,0
2016-12-26T02:14:55.159Z,0
2016-12-26T02:15:43.464Z,0
2016-12-26T02:16:32.288Z,0
2016-12-26T02:17:20.530Z,0
2016-12-26T02:18:09.847Z,0
2016-12-26T02:18:57.949Z,0
2016-12-26T02:19:46.851Z,0
2016-12-26T02:20:35.340Z,0
2016-12-26T02:21:23.762Z,0
2016-12-26T02:22:12.591Z,0
2016-12-26T02:23:01.059Z,0
2016-12-26T02:23:49.614Z,0
2016-12-26T02:26:11.273Z,0
2016-12-26T02:26:58.386Z,0
2016-12-26T02:27:46.663Z,0
2016-12-26T02:28:35.536Z,0
2016-12-26T02:29:24.273Z,0
2016-12-26T02:30:12.637Z,0
2016-12-26T02:31:01.197Z,0
2016-12-26T02:31:49.739Z,0
2016-12-26T02:32:38.426Z,0
2016-12-26T02:33:27.209Z,0
2016-12-26T02:34:16.435Z,0
2016-12-26T02:35:05.080Z,0
2016-12-26T02:35:53.190Z,0
2016-12-26T02:36:41.971Z,0
2016-12-26T02:37:30.604Z,0
2016-12-26T02:38:19.257Z,0
2016-12-26T02:39:08.077Z,0
2016-12-26T02:39:56.908Z,0
2016-12-26T02:40:45.032Z,0
2016-12-26T02:41:33.831Z,0
2016-12-26T02:42:22.788Z,0
2016-12-26T02:43:11.264Z,0
2016-12-26T02:43:59.707Z,0
2016-12-26T02:44:48.451Z,0
2016-12-26T02:45:38.055Z,0
2016-12-26T02:46:26.450Z,0
2016-12-26T02:49:06.926Z,0
2016-12-26T02:49:55.136Z,0
2016-12-26T02:50:43.830Z,0
2016-12-26T02:51:32.347Z,0
2016-12-26T02:52:21.349Z,0
2016-12-26T02:53:09.380Z,0
2016-12-26T02:53:56.515Z,0
2016-12-26T02:54:45.137Z,0
2016-12-26T02:55:33.722Z,0
2016-12-26T02:56:22.170Z,0
2016-12-26T02:57:10.805Z,0
2016-12-26T02:57:59.481Z,0
2016-12-26T02:58:48.451Z,0
2016-12-26T02:59:37.012Z,0
2016-12-26T03:00:25.484Z,0
2016-12-26T03:01:14.025Z,0
2016-12-26T03:02:02.694Z,0
2016-12-26T03:02:51.218Z,0
2016-12-26T03:03:40.013Z,0
2016-12-26T03:04:28.549Z,0
2016-12-26T03:05:17.131Z,0
2016-12-26T03:06:05.748Z,0
2016-12-26T03:06:54.700Z,0
2016-12-26T03:07:43.692Z,0
2016-12-26T03:08:31.838Z,0
2016-12-26T03:09:20.437Z,0
2016-12-26T03:10:09.256Z,0
2016-12-26T03:10:57.827Z,0
2016-12-26T03:11:46.600Z,0
2016-12-26T03:12:35.032Z,0
2016-12-26T03:13:23.653Z,0
2016-12-26T03:14:12.107Z,0
2016-12-26T03:15:01.305Z,0
2016-12-26T03:15:49.688Z,0
2016-12-26T03:16:38.314Z,0
2016-12-26T03:17:19.810Z,0
2016-12-26T03:18:00.373Z,0
2016-12-26T03:18:40.784Z,0
2016-12-26T03:19:21.339Z,0
2016-12-26T03:20:02.836Z,0
2016-12-26T03:20:44.917Z,0
2016-12-26T03:21:26.002Z,0
2016-12-26T03:22:07.041Z,0
2016-12-26T03:22:47.487Z,0
2016-12-26T03:23:29.505Z,0
2016-12-26T03:24:10.726Z,0
2016-12-26T03:24:53.518Z,0
2016-12-26T03:25:34.728Z,0
2016-12-26T03:26:15.218Z,0
2016-12-26T03:26:55.683Z,0
2016-12-26T03:27:36.965Z,0
2016-12-26T03:28:18.928Z,0
2016-12-26T03:28:59.396Z,0
2016-12-26T03:29:40.744Z,0
2016-12-26T03:30:21.937Z,0
2016-12-26T03:31:03.312Z,0
2016-12-26T03:31:45.912Z,0
2016-12-26T03:32:31.156Z,0
2016-12-26T03:33:11.610Z,0
2016-12-26T03:33:52.129Z,0
2016-12-26T03:34:33.303Z,0
2016-12-26T03:35:13.779Z,0
2016-12-26T03:35:54.916Z,0
2016-12-26T03:36:35.933Z,0
2016-12-26T03:37:16.432Z,0
2016-12-26T03:37:57.781Z,0
2016-12-26T03:38:38.254Z,0
2016-12-26T03:39:19.522Z,0
2016-12-26T03:40:00.660Z,0
2016-12-26T03:40:41.112Z,0
2016-12-26T03:41:21.603Z,0
2016-12-26T03:42:02.140Z,0
2016-12-26T03:42:42.624Z,0
2016-12-26T03:43:23.101Z,0
2016-12-26T03:44:03.557Z,0
2016-12-26T03:44:44.035Z,0
2016-12-26T03:45:25.547Z,0
2016-12-26T03:46:06.075Z,0
2016-12-26T03:46:47.022Z,0
2016-12-26T03:47:27.558Z,0
2016-12-26T03:48:08.006Z,0
2016-12-26T03:48:48.455Z,0
2016-12-26T03:49:28.936Z,0
2016-12-26T03:50:09.969Z,0
2016-12-26T03:50:55.963Z,0
2016-12-26T03:51:36.499Z,0
2016-12-26T03:52:16.983Z,0
2016-12-26T03:52:59.229Z,0
2016-12-26T03:53:39.726Z,0
2016-12-26T03:54:20.167Z,0
2016-12-26T03:55:00.659Z,0
2016-12-26T03:55:41.143Z,0
2016-12-26T03:56:22.560Z,0
2016-12-26T03:57:03.996Z,0
2016-12-26T03:57:44.773Z,0
2016-12-26T03:58:28.944Z,0
2016-12-26T03:59:10.143Z,0
2016-12-26T03:59:50.622Z,0
2016-12-26T04:00:32.527Z,0
2016-12-26T04:01:13.020Z,0
2016-12-26T04:01:53.482Z,0
2016-12-26T04:02:33.962Z,0
2016-12-26T04:03:16.146Z,0
2016-12-26T04:03:57.306Z,0
2016-12-26T04:04:39.562Z,0
2016-12-26T04:05:19.971Z,0
2016-12-26T04:06:01.437Z,0
2016-12-26T04:06:44.519Z,0
2016-12-26T04:07:24.971Z,0
2016-12-26T04:08:06.133Z,0
2016-12-26T04:08:46.648Z,0
2016-12-26T04:09:28.923Z,0
2016-12-26T04:10:09.430Z,0
2016-12-26T04:10:49.948Z,0
2016-12-26T04:11:31.339Z,0
2016-12-26T04:12:11.850Z,0
2016-12-26T04:12:53.034Z,0
2016-12-26T04:13:33.530Z,0
2016-12-26T04:14:14.529Z,0
2016-12-26T04:14:55.954Z,0
2016-12-26T04:15:36.446Z,0
2016-12-26T04:16:16.943Z,0
2016-12-26T04:16:58.267Z,0
2016-12-26T04:17:38.742Z,0
2016-12-26T04:18:19.210Z,0
2016-12-26T04:18:59.730Z,0
2016-12-26T04:19:40.199Z,0
2016-12-26T04:20:20.685Z,0
2016-12-26T04:21:01.177Z,0
2016-12-26T04:21:41.673Z,0
2016-12-26T04:22:22.162Z,0
2016-12-26T04:23:02.649Z,0
2016-12-26T04:23:43.120Z,0
2016-12-26T04:24:23.638Z,0
2016-12-26T04:25:04.088Z,0
2016-12-26T04:25:44.651Z,0
2016-12-26T04:26:25.133Z,0
2016-12-26T04:27:05.615Z,0
2016-12-26T04:27:46.081Z,0
2016-12-26T04:28:26.599Z,0
2016-12-26T04:29:07.089Z,0
2016-12-26T04:29:47.560Z,0
2016-12-26T04:30:28.016Z,0
2016-12-26T04:31:08.527Z,0
2016-12-26T04:31:49.001Z,0
2016-12-26T04:32:29.515Z,0
2016-12-26T04:33:10.006Z,0
2016-12-26T04:33:50.485Z,0
2016-12-26T04:34:30.996Z,0
2016-12-26T04:35:11.494Z,0
2016-12-26T04:35:51.952Z,0
2016-12-26T04:36:32.415Z,0
2016-12-26T04:37:12.897Z,0
2016-12-26T04:37:53.405Z,0
2016-12-26T04:38:33.851Z,0
2016-12-26T04:39:14.465Z,0
2016-12-26T04:39:54.921Z,0
2016-12-26T04:40:35.430Z,0
2016-12-26T04:41:15.950Z,0
2016-12-26T04:41:56.397Z,0
2016-12-26T04:42:36.873Z,0
2016-12-26T04:43:17.375Z,0
2016-12-26T04:43:57.793Z,0
2016-12-26T04:44:38.330Z,0
2016-12-26T04:45:18.786Z,0
2016-12-26T04:45:59.298Z,0
2016-12-26T04:46:39.717Z,0
2016-12-26T04:47:20.231Z,0
2016-12-26T04:48:01.231Z,0
2016-12-26T04:48:41.704Z,0
2016-12-26T04:49:22.165Z,0
2016-12-26T04:50:02.649Z,0
2016-12-26T04:50:43.102Z,0
2016-12-26T04:51:23.645Z,0
2016-12-26T04:52:04.073Z,0
2016-12-26T04:52:44.595Z,0
2016-12-26T04:53:25.068Z,0
2016-12-26T04:54:06.247Z,0
2016-12-26T04:54:46.748Z,0
2016-12-26T04:55:27.233Z,0
2016-12-26T04:56:07.699Z,0
2016-12-26T04:56:51.458Z,0
2016-12-26T04:57:32.652Z,0
2016-12-26T04:58:13.811Z,0
2016-12-26T04:58:54.372Z,0
2016-12-26T04:59:35.789Z,0
2016-12-26T05:00:16.248Z,0
2016-12-26T05:00:56.748Z,0
2016-12-26T05:01:37.780Z,0
2016-12-26T05:02:18.260Z,0
2016-12-26T05:02:58.704Z,0
2016-12-26T05:03:39.207Z,0
2016-12-26T05:04:20.649Z,0
2016-12-26T05:05:01.187Z,0
2016-12-26T05:05:44.962Z,0
2016-12-26T05:06:26.263Z,0
2016-12-26T05:07:06.716Z,0
2016-12-26T05:07:48.539Z,0
2016-12-26T05:08:30.532Z,0
2016-12-26T05:09:11.960Z,0
2016-12-26T05:09:52.422Z,0
2016-12-26T05:10:32.905Z,0
2016-12-26T05:11:13.467Z,0
2016-12-26T05:11:53.913Z,0
2016-12-26T05:12:34.403Z,0
2016-12-26T05:13:15.782Z,0
2016-12-26T05:13:56.877Z,0
2016-12-26T05:14:38.370Z,0
2016-12-26T05:15:18.855Z,0
2016-12-26T05:15:59.925Z,0
2016-12-26T05:16:42.246Z,0
2016-12-26T05:17:24.387Z,0
2016-12-26T05:18:04.857Z,0
2016-12-26T05:18:45.352Z,0
2016-12-26T05:19:27.631Z,0
2016-12-26T05:20:08.160Z,0
2016-12-26T05:20:48.634Z,0
2016-12-26T05:21:29.789Z,0
2016-12-26T05:22:10.733Z,0
2016-12-26T05:22:51.215Z,0
2016-12-26T05:23:31.730Z,0
2016-12-26T05:24:12.192Z,0
2016-12-26T05:24:52.695Z,0
2016-12-26T05:25:33.772Z,0
2016-12-26T05:26:14.263Z,0
2016-12-26T05:26:54.724Z,0
2016-12-26T05:27:36.177Z,0
2016-12-26T05:28:19.162Z,0
2016-12-26T05:28:59.731Z,0
2016-12-26T05:29:40.196Z,0
2016-12-26T05:30:20.692Z,0
2016-12-26T05:31:01.198Z,0
2016-12-26T05:31:41.882Z,0
2016-12-26T05:32:22.369Z,0
2016-12-26T05:33:02.824Z,0
2016-12-26T05:33:44.426Z,0
2016-12-26T05:34:25.888Z,0
2016-12-26T05:35:06.312Z,0
2016-12-26T05:35:47.645Z,0
2016-12-26T05:36:28.164Z,0
2016-12-26T05:37:08.668Z,0
2016-12-26T05:37:49.129Z,0
2016-12-26T05:38:29.586Z,0
2016-12-26T05:39:10.671Z,0
2016-12-26T05:39:51.152Z,0
2016-12-26T05:40:31.669Z,0
2016-12-26T05:41:12.132Z,0
2016-12-26T05:41:52.598Z,0
2016-12-26T05:42:33.065Z,0
2016-12-26T05:43:13.537Z,0
2016-12-26T05:43:54.044Z,0
2016-12-26T05:44:36.440Z,0
2016-12-26T05:45:16.968Z,0
2016-12-26T05:45:58.188Z,0
2016-12-26T05:46:38.697Z,0
2016-12-26T05:47:19.155Z,0
2016-12-26T05:47:59.794Z,0
2016-12-26T05:48:40.269Z,0
2016-12-26T05:49:20.772Z,0
2016-12-26T05:50:01.962Z,0
2016-12-26T05:50:43.255Z,0
2016-12-26T05:51:23.722Z,0
2016-12-26T05:52:05.153Z,0
2016-12-26T05:52:46.267Z,0
2016-12-26T05:53:28.142Z,0
2016-12-26T05:54:10.065Z,0
2016-12-26T05:54:50.700Z,0
2016-12-26T05:55:32.756Z,0
2016-12-26T05:56:13.749Z,0
2016-12-26T05:56:54.880Z,0
2016-12-26T05:57:35.326Z,0
2016-12-26T05:58:18.159Z,0
2016-12-26T05:58:58.658Z,0
2016-12-26T05:59:39.642Z,0
2016-12-26T06:00:24.671Z,0
2016-12-26T06:01:07.501Z,0
2016-12-26T06:01:47.951Z,0
2016-12-26T06:02:28.402Z,0
2016-12-26T06:03:09.500Z,0
2016-12-26T06:03:50.546Z,0
2016-12-26T06:04:31.077Z,0
2016-12-26T06:05:12.247Z,0
2016-12-26T06:05:52.785Z,0
2016-12-26T06:06:33.199Z,0
2016-12-26T06:07:15.054Z,0
2016-12-26T06:07:55.550Z,0
2016-12-26T06:08:37.795Z,0
2016-12-26T06:09:18.740Z,0
2016-12-26T06:10:00.049Z,0
2016-12-26T06:10:40.505Z,0
2016-12-26T06:11:21.698Z,0
2016-12-26T06:12:02.137Z,0
2016-12-26T06:12:43.250Z,0
2016-12-26T06:13:25.249Z,0
2016-12-26T06:14:05.720Z,0
2016-12-26T06:14:46.225Z,0
2016-12-26T06:15:27.653Z,0
2016-12-26T06:16:08.149Z,0
2016-12-26T06:16:52.040Z,0
2016-12-26T06:17:33.176Z,0
2016-12-26T06:18:13.649Z,0
2016-12-26T06:18:54.127Z,0
2016-12-26T06:19:36.158Z,0
2016-12-26T06:20:17.206Z,0
2016-12-26T06:20:57.648Z,0
2016-12-26T06:21:38.166Z,0
2016-12-26T06:22:19.160Z,0
2016-12-26T06:22:59.649Z,0
2016-12-26T06:23:40.120Z,0
2016-12-26T06:24:21.587Z,0
2016-12-26T06:25:02.080Z,0
2016-12-26T06:25:43.571Z,0
2016-12-26T06:26:24.576Z,0
2016-12-26T06:27:05.048Z,0
2016-12-26T06:27:46.927Z,0
2016-12-26T06:28:27.930Z,0
2016-12-26T06:29:09.940Z,0
2016-12-26T06:29:50.464Z,0
2016-12-26T06:32:11.676Z,0
2016-12-26T06:32:59.746Z,0
2016-12-26T06:33:48.388Z,0
2016-12-26T06:34:36.550Z,0
2016-12-26T06:35:25.151Z,0
2016-12-26T06:36:13.631Z,0
2016-12-26T06:37:02.730Z,0
2016-12-26T06:37:51.241Z,0
2016-12-26T06:38:39.880Z,0
2016-12-26T06:39:28.563Z,0
2016-12-26T06:40:17.578Z,0
2016-12-26T06:41:05.930Z,0
2016-12-26T06:41:54.761Z,0
2016-12-26T06:42:43.461Z,0
2016-12-26T06:43:32.121Z,0
2016-12-26T06:44:20.565Z,0
2016-12-26T06:45:08.974Z,0
2016-12-26T06:45:57.780Z,0
2016-12-26T06:46:46.371Z,0
2016-12-26T06:47:35.145Z,0
2016-12-26T06:48:24.176Z,0
2016-12-26T06:49:12.338Z,0
2016-12-26T06:50:00.983Z,0
2016-12-26T06:50:50.010Z,0
2016-12-26T06:51:38.405Z,0
2016-12-26T06:52:26.942Z,0
2016-12-26T06:53:15.849Z,0
2016-12-26T06:54:04.155Z,0
2016-12-26T06:54:45.644Z,0
2016-12-26T06:55:26.178Z,0
2016-12-26T06:56:06.626Z,0
2016-12-26T06:56:47.072Z,0
2016-12-26T06:57:28.306Z,0
2016-12-26T06:58:08.825Z,0
2016-12-26T06:58:50.202Z,0
2016-12-26T06:59:30.662Z,0
2016-12-26T07:00:13.587Z,0
2016-12-26T07:00:54.103Z,0
2016-12-26T07:01:36.106Z,0
2016-12-26T07:02:17.420Z,0
2016-12-26T07:02:57.898Z,0
2016-12-26T07:03:39.797Z,0
2016-12-26T07:04:21.224Z,0
2016-12-26T07:05:02.160Z,0
2016-12-26T07:05:42.666Z,0
2016-12-26T07:06:23.188Z,4
2016-12-26T07:07:03.664Z,4
2016-12-26T07:07:44.137Z,0
2016-12-26T07:08:24.546Z,0
2016-12-26T07:09:05.055Z,0
2016-12-26T07:09:45.560Z,0
2016-12-26T07:10:27.009Z,4
2016-12-26T07:11:07.456Z,4
2016-12-26T07:11:47.944Z,4
2016-12-26T07:12:28.440Z,4
2016-12-26T07:13:09.822Z,0
2016-12-26T07:13:51.100Z,0
2016-12-26T07:14:31.588Z,0
2016-12-26T07:15:12.074Z,4
2016-12-26T07:15:52.592Z,4
2016-12-26T07:16:33.014Z,4
2016-12-26T07:19:11.810Z,4
2016-12-26T07:20:00.305Z,8
2016-12-26T07:20:49.006Z,12
2016-12-26T07:21:37.632Z,12
2016-12-26T07:22:26.442Z,16
2016-12-26T07:23:15.185Z,16
2016-12-26T07:24:04.136Z,20
2016-12-26T07:24:52.580Z,24
2016-12-26T07:25:41.096Z,32
2016-12-26T07:26:30.424Z,40
2016-12-26T07:27:18.938Z,44
2016-12-26T07:28:07.927Z,48
2016-12-26T07:28:56.119Z,48
2016-12-26T07:29:44.577Z,48
2016-12-26T07:30:33.474Z,48
2016-12-26T07:31:22.140Z,56
2016-12-26T07:32:11.076Z,68
2016-12-26T07:32:59.894Z,80
2016-12-26T07:33:48.208Z,88
2016-12-26T07:34:37.013Z,92
2016-12-26T07:35:25.915Z,100
2016-12-26T07:36:14.200Z,108
2016-12-26T07:53:05.455Z,356
2016-12-26T07:53:54.434Z,368
2016-12-26T07:54:42.434Z,396
2016-12-26T07:55:31.225Z,420
2016-12-26T07:56:19.983Z,436
2016-12-26T07:57:08.595Z,448
2016-12-26T07:57:55.853Z,468
2016-12-26T07:58:44.862Z,480
2016-12-26T07:59:33.077Z,496
2016-12-26T08:00:21.830Z,512
2016-12-26T08:01:10.512Z,532
2016-12-26T08:01:59.282Z,548
2016-12-26T08:02:47.719Z,560
2016-12-26T08:03:36.533Z,576
2016-12-26T08:04:25.497Z,592
2016-12-26T08:05:14.166Z,608
2016-12-26T08:06:02.610Z,624
2016-12-26T08:06:51.186Z,640
2016-12-26T08:07:40.061Z,660
2016-12-26T08:08:28.803Z,676
2016-12-26T08:09:17.530Z,692
2016-12-26T08:10:06.459Z,708
2016-12-26T08:10:54.800Z,728
2016-12-26T08:11:43.225Z,748
2016-12-26T08:12:32.357Z,768
2016-12-26T08:13:20.828Z,784
2016-12-26T08:14:10.004Z,804
2016-12-26T08:14:57.979Z,824
2016-12-26T08:15:46.975Z,840
2016-12-26T08:16:29.026Z,856
2016-12-26T08:17:10.109Z,880
2016-12-26T08:17:50.584Z,900
2016-12-26T08:18:31.581Z,916
2016-12-26T08:21:07.955Z,984
2016-12-26T08:21:56.310Z,1012
2016-12-26T08:22:45.052Z,1036
2016-12-26T08:23:33.466Z,1060
2016-12-26T08:24:22.326Z,1084
2016-12-26T08:25:11.319Z,1112
2016-12-26T08:26:00.083Z,1132
2016-12-26T08:26:48.817Z,1160
2016-12-26T08:29:10.655Z,1228
2016-12-26T08:29:59.088Z,1256
2016-12-26T08:34:11.924Z,1308
2016-12-26T08:35:00.594Z,1316
2016-12-26T08:35:49.529Z,1336
2016-12-26T08:36:38.944Z,1340
2016-12-26T08:37:25.706Z,1312
2016-12-26T08:38:14.525Z,1332
2016-12-26T08:39:03.620Z,1352
2016-12-26T08:39:51.909Z,1436
2016-12-26T08:40:40.503Z,1476
2016-12-26T08:41:28.998Z,1512
2016-12-26T08:42:17.714Z,1560
2016-12-26T08:43:06.322Z,1572
2016-12-26T08:43:55.432Z,1592
2016-12-26T08:44:43.752Z,1608
2016-12-26T08:45:32.840Z,1620
2016-12-26T08:46:21.244Z,1648
2016-12-26T08:47:10.417Z,1660
2016-12-26T08:47:58.565Z,1680
2016-12-26T08:48:47.225Z,1692
2016-12-26T08:56:14.933Z,1956
2016-12-26T08:57:03.132Z,2364
2016-12-26T08:57:51.933Z,2336
2016-12-26T08:58:40.884Z,1688
2016-12-26T08:59:29.099Z,1680
2016-12-26T09:00:18.729Z,1932
2016-12-26T09:01:06.860Z,2136
2016-12-26T09:01:54.999Z,3004
2016-12-26T09:02:43.653Z,4680
2016-12-26T09:03:32.680Z,5356
2016-12-26T09:04:21.220Z,4076
2016-12-26T09:05:09.733Z,4524
2016-12-26T09:05:58.290Z,5144
2016-12-26T09:06:47.416Z,4640
2016-12-26T09:07:35.962Z,4240
2016-12-26T09:08:24.919Z,3612
2016-12-26T09:09:13.527Z,2420
2016-12-26T09:10:01.989Z,2168
2016-12-26T09:10:50.980Z,1952
2016-12-26T09:14:55.944Z,2116
2016-12-26T09:15:44.849Z,2116
2016-12-26T09:16:33.494Z,2100
2016-12-26T09:17:21.899Z,2076
2016-12-26T09:18:11.041Z,2260
2016-12-26T09:18:59.763Z,2216
2016-12-26T09:19:48.083Z,2240
2016-12-26T09:20:36.858Z,2544
2016-12-26T09:21:25.918Z,3024
2016-12-26T09:22:14.541Z,3492
2016-12-26T09:23:03.268Z,4516
2016-12-26T09:23:51.331Z,4040
2016-12-26T09:24:39.942Z,2772
2016-12-26T09:25:28.888Z,2196
2016-12-26T09:26:17.148Z,2092
2016-12-26T09:27:05.684Z,1948
2016-12-26T09:27:54.475Z,1976
2016-12-26T09:28:43.259Z,1960
2016-12-26T09:29:32.121Z,1980
2016-12-26T09:30:20.477Z,2092
2016-12-26T09:31:09.451Z,2224
2016-12-26T09:31:57.981Z,2260
2016-12-26T09:32:46.653Z,2148
2016-12-26T09:33:35.144Z,2264
2016-12-26T09:34:24.369Z,2156
2016-12-26T09:35:12.667Z,2176
2016-12-26T09:36:01.577Z,2280
2016-12-26T09:36:50.359Z,2296
2016-12-26T09:37:38.542Z,2316
2016-12-26T09:38:27.613Z,2332
2016-12-26T09:42:41.851Z,2404
2016-12-26T09:43:30.418Z,2424
2016-12-26T09:44:19.681Z,2452
2016-12-26T09:45:08.286Z,2472
2016-12-26T09:45:56.905Z,2492
2016-12-26T09:46:45.686Z,2524
2016-12-26T09:47:34.663Z,2572
2016-12-26T09:48:23.323Z,2664
2016-12-26T09:49:11.778Z,2676
2016-12-26T09:50:00.592Z,2644
2016-12-26T09:50:48.977Z,2580
2016-12-26T09:51:37.884Z,2504
2016-12-26T09:52:26.825Z,2528
2016-12-26T09:53:14.958Z,2560
2016-12-26T09:54:04.100Z,2588
2016-12-26T09:54:52.571Z,2644
2016-12-26T09:55:41.224Z,2724
2016-12-26T09:56:29.765Z,3064
2016-12-26T09:57:18.484Z,3688
2016-12-26T09:58:07.417Z,4832
2016-12-26T09:58:55.919Z,5264
2016-12-26T09:59:44.467Z,4716
2016-12-26T10:00:33.679Z,3856
2016-12-26T10:01:22.201Z,2892
2016-12-26T10:02:11.072Z,2656
2016-12-26T10:02:59.367Z,2676
2016-12-26T10:03:48.253Z,2876
2016-12-26T10:04:44.040Z,3052
2016-12-26T10:07:05.603Z,5808
2016-12-26T10:07:54.125Z,4676
2016-12-26T10:08:42.929Z,3292
2016-12-26T10:09:31.503Z,2760
2016-12-26T10:10:20.685Z,2692
2016-12-26T10:11:09.331Z,2672
2016-12-26T10:11:57.688Z,2672
2016-12-26T10:12:46.927Z,2692
2016-12-26T10:13:35.223Z,2708
2016-12-26T10:14:24.020Z,2728
2016-12-26T10:15:12.407Z,2752
2016-12-26T10:16:01.448Z,2760
2016-12-26T10:16:49.763Z,2764
2016-12-26T10:17:38.526Z,2780
2016-12-26T10:18:27.350Z,2808
2016-12-26T10:19:15.937Z,2856
2016-12-26T10:20:04.434Z,2856
2016-12-26T10:20:53.068Z,3104
2016-12-26T10:21:41.874Z,3452
2016-12-26T10:22:30.436Z,3888
2016-12-26T10:23:19.106Z,4496
2016-12-26T10:24:08.213Z,4956
2016-12-26T10:24:56.403Z,4696
2016-12-26T10:25:45.526Z,4144
2016-12-26T10:26:33.982Z,3544
2016-12-26T10:27:22.510Z,2720
2016-12-26T10:28:11.254Z,1728
2016-12-26T10:28:59.986Z,1064
2016-12-26T10:29:48.559Z,772
2016-12-26T10:30:37.542Z,568
2016-12-26T10:31:25.757Z,500
2016-12-26T10:32:14.664Z,452
2016-12-26T10:33:03.129Z,588
2016-12-26T10:33:52.048Z,892
2016-12-26T10:34:40.675Z,1772
2016-12-26T10:35:29.406Z,3476
2016-12-26T10:36:18.405Z,4224
2016-12-26T10:37:07.214Z,3372
2016-12-26T10:37:56.463Z,3040
2016-12-26T10:38:44.970Z,3028
2016-12-26T10:39:33.752Z,2668
2016-12-26T10:40:22.613Z,2548
2016-12-26T10:41:11.389Z,2408
2016-12-26T10:41:59.929Z,2340
2016-12-26T10:42:48.896Z,2576
2016-12-26T10:43:37.027Z,2688
2016-12-26T10:44:25.743Z,2752
2016-12-26T10:45:14.685Z,2772
2016-12-26T10:46:03.121Z,2784
2016-12-26T10:46:52.085Z,2824
2016-12-26T10:47:40.522Z,2868
2016-12-26T10:48:29.575Z,2892
2016-12-26T10:49:17.825Z,2908
2016-12-26T10:50:06.563Z,2956
2016-12-26T10:50:55.504Z,3016
2016-12-26T10:51:44.169Z,3072
2016-12-26T10:52:32.761Z,3208
2016-12-26T10:53:21.689Z,3768
2016-12-26T10:54:10.252Z,4788
2016-12-26T10:54:58.998Z,5248
2016-12-26T10:55:47.815Z,5776
2016-12-26T10:56:36.584Z,5424
2016-12-26T10:57:17.773Z,6016
2016-12-26T10:57:58.285Z,5128
2016-12-26T10:58:38.743Z,5492
2016-12-26T10:59:19.193Z,5364
2016-12-26T10:59:59.688Z,4392
2016-12-26T11:00:40.174Z,3880
2016-12-26T11:01:20.650Z,3416
2016-12-26T11:02:01.092Z,3124
2016-12-26T11:02:42.158Z,3020
2016-12-26T11:03:22.644Z,2484
2016-12-26T11:04:04.863Z,2824
2016-12-26T11:04:45.964Z,2988
2016-12-26T11:05:26.399Z,3360
2016-12-26T11:06:06.914Z,2972
2016-12-26T11:06:47.395Z,3960
2016-12-26T11:07:27.944Z,5364
2016-12-26T11:08:08.465Z,4536
2016-12-26T11:08:48.940Z,4244
2016-12-26T11:09:29.465Z,4268
2016-12-26T11:10:09.935Z,5364
2016-12-26T11:10:50.441Z,4624
2016-12-26T11:11:30.915Z,5620
2016-12-26T11:12:11.378Z,6316
2016-12-26T11:12:51.923Z,5308
2016-12-26T11:13:32.342Z,5072
2016-12-26T11:14:12.831Z,5796
2016-12-26T11:14:53.385Z,5648
2016-12-26T11:15:33.814Z,4012
2016-12-26T11:16:14.274Z,3608
2016-12-26T11:16:54.736Z,3492
2016-12-26T11:17:35.186Z,3384
2016-12-26T11:18:15.697Z,2768
2016-12-26T11:18:56.165Z,2236
2016-12-26T11:19:36.663Z,2160
2016-12-26T11:20:17.157Z,2992
2016-12-26T11:20:57.644Z,3828
2016-12-26T11:21:38.141Z,3788
2016-12-26T11:22:18.635Z,3152
2016-12-26T11:22:59.096Z,3076
2016-12-26T11:23:39.581Z,3072
2016-12-26T11:24:23.351Z,3400
2016-12-26T11:25:04.559Z,3940
2016-12-26T11:25:47.358Z,4124
2016-12-26T11:26:29.583Z,3776
2016-12-26T11:27:12.538Z,3180
2016-12-26T11:27:53.760Z,3280
2016-12-26T11:28:35.116Z,3276
2016-12-26T11:29:16.228Z,3028
2016-12-26T11:29:56.745Z,2676
2016-12-26T11:30:37.225Z,2652